Time;durP1;ratioP1;P1;durP2;ratioP2;P2;SDS_P1;SDS_P2;PMS_P1;PMS_P2;Temp;Humidity;BMP_temperature;BMP_pressure;BME280_temperature;BME280_humidity;BME280_pressure;Samples;Min_cycle;Max_cycle;Signal;HPM_P1;HPM_P2
2023/04/23 00:01:25;;;;;;;7.93;5.50;;;13.50;99.90;;;;;;4317282;28;10000284;-75
2023/04/23 00:03:54;;;;;;;9.52;5.63;;;13.40;99.90;;;;;;5008997;28;20040;-76
2023/04/23 00:06:21;;;;;;;6.60;5.60;;;13.40;99.90;;;;;;5011157;28;20504;-75
2023/04/23 00:08:47;;;;;;;7.60;5.43;;;13.30;99.90;;;;;;5004708;28;20032;-76
2023/04/23 00:11:13;;;;;;;11.38;5.97;;;13.30;99.90;;;;;;5008893;28;20511;-77
2023/04/23 00:13:39;;;;;;;8.10;5.80;;;13.30;99.90;;;;;;5007717;28;20025;-76
2023/04/23 00:16:05;;;;;;;7.68;5.57;;;13.20;99.90;;;;;;5010867;28;20030;-75
2023/04/23 00:18:31;;;;;;;7.28;5.88;;;13.20;99.90;;;;;;5005317;28;20544;-76
2023/04/23 00:20:58;;;;;;;11.30;6.60;;;13.10;99.90;;;;;;5010651;28;20033;-75
2023/04/23 00:23:23;;;;;;;8.18;5.95;;;13.10;99.90;;;;;;5010288;28;20084;-76
2023/04/23 00:25:49;;;;;;;8.65;6.45;;;13.10;99.90;;;;;;5010053;28;20041;-76
2023/04/23 00:28:15;;;;;;;9.38;6.60;;;13.00;99.90;;;;;;4999496;28;20695;-77
2023/04/23 00:30:41;;;;;;;10.20;6.70;;;13.00;99.90;;;;;;4997795;28;20069;-77
2023/04/23 00:33:06;;;;;;;9.02;6.38;;;13.00;99.90;;;;;;4993114;28;20044;-77
2023/04/23 00:35:32;;;;;;;9.90;6.75;;;12.90;99.90;;;;;;5005380;28;20030;-77
2023/04/23 00:37:57;;;;;;;10.18;6.80;;;12.90;99.90;;;;;;4998156;28;20030;-77
2023/04/23 00:40:23;;;;;;;9.30;6.82;;;12.80;99.90;;;;;;4990938;28;20410;-77
2023/04/23 00:42:51;;;;;;;8.07;6.57;;;12.80;99.90;;;;;;4992595;28;20097;-77
2023/04/23 00:45:17;;;;;;;10.40;6.95;;;12.80;99.90;;;;;;5007384;28;20049;-77
2023/04/23 00:47:43;;;;;;;9.93;6.78;;;12.80;99.90;;;;;;5003328;28;20034;-77
2023/04/23 00:50:10;;;;;;;13.57;7.15;;;12.80;99.90;;;;;;4998291;28;20057;-77
2023/04/23 00:52:37;;;;;;;11.00;7.22;;;12.70;99.90;;;;;;5002410;28;20022;-77
2023/04/23 00:55:03;;;;;;;7.80;6.97;;;12.70;99.90;;;;;;5002962;28;20046;-78
2023/04/23 00:57:29;;;;;;;9.30;6.68;;;12.60;99.90;;;;;;4995695;28;20091;-79
2023/04/23 00:59:57;;;;;;;11.13;7.10;;;12.60;99.90;;;;;;4996536;28;20037;-78
2023/04/23 01:02:23;;;;;;;7.70;6.25;;;12.60;99.90;;;;;;5004125;28;20038;-79
2023/04/23 01:04:53;;;;;;;11.68;7.03;;;12.60;99.90;;;;;;5001249;28;20105;-79
2023/04/23 01:07:20;;;;;;;10.75;7.45;;;12.60;99.90;;;;;;4995342;28;20033;-79
2023/04/23 01:09:46;;;;;;;8.13;6.75;;;12.60;99.90;;;;;;5003386;28;20055;-79
2023/04/23 01:12:13;;;;;;;10.35;7.65;;;12.60;99.90;;;;;;5004342;28;20156;-79
2023/04/23 01:14:41;;;;;;;9.32;7.65;;;12.50;99.90;;;;;;5001212;28;20113;-78
2023/04/23 01:17:08;;;;;;;8.95;7.38;;;12.50;99.90;;;;;;5004423;28;20389;-79
2023/04/23 01:19:34;;;;;;;9.57;7.70;;;12.50;99.90;;;;;;5007833;28;20030;-78
2023/04/23 01:22:00;;;;;;;9.93;7.45;;;12.50;99.90;;;;;;4997911;28;20501;-79
2023/04/23 01:24:28;;;;;;;10.40;7.70;;;12.50;99.90;;;;;;5005051;28;20046;-79
2023/04/23 01:26:54;;;;;;;9.88;7.75;;;12.50;99.90;;;;;;4996987;28;20030;-79
2023/04/23 01:29:20;;;;;;;9.85;7.30;;;12.40;99.90;;;;;;5002383;28;20041;-78
2023/04/23 01:31:47;;;;;;;9.90;7.30;;;12.50;99.90;;;;;;5004005;28;20031;-78
2023/04/23 01:34:13;;;;;;;9.18;7.38;;;12.40;99.90;;;;;;4996901;28;20041;-78
2023/04/23 01:36:41;;;;;;;10.35;7.13;;;12.40;99.90;;;;;;5004703;28;20049;-78
2023/04/23 01:39:08;;;;;;;15.18;8.13;;;12.40;99.90;;;;;;5000952;28;20036;-79
2023/04/23 01:41:35;;;;;;;9.43;7.15;;;12.40;99.90;;;;;;5001942;28;20026;-79
2023/04/23 01:44:01;;;;;;;8.15;7.25;;;12.30;99.90;;;;;;4999859;28;20038;-79
2023/04/23 01:46:27;;;;;;;10.20;8.10;;;12.30;99.90;;;;;;5005547;28;20044;-79
2023/04/23 01:48:53;;;;;;;9.95;8.43;;;12.30;99.90;;;;;;5001174;28;20117;-79
2023/04/23 01:51:18;;;;;;;12.43;8.68;;;12.30;99.90;;;;;;5003685;28;20033;-78
2023/04/23 01:53:44;;;;;;;9.52;8.27;;;12.30;99.90;;;;;;4998350;28;20578;-79
2023/04/23 01:56:10;;;;;;;11.63;7.63;;;12.30;99.90;;;;;;4994186;28;20034;-79
2023/04/23 01:58:36;;;;;;;11.93;8.40;;;12.30;99.90;;;;;;4992553;28;20057;-79
2023/04/23 02:01:02;;;;;;;11.00;8.68;;;12.30;99.90;;;;;;5000121;28;20054;-79
2023/04/23 02:03:29;;;;;;;10.93;8.52;;;12.20;99.90;;;;;;5001420;28;20037;-78
2023/04/23 02:05:55;;;;;;;11.40;9.13;;;12.20;99.90;;;;;;5004744;28;20036;-78
2023/04/23 02:08:21;;;;;;;10.45;8.48;;;12.20;99.90;;;;;;5003848;28;20042;-79
2023/04/23 02:10:47;;;;;;;9.95;8.23;;;12.20;99.90;;;;;;4999586;28;20181;-79
2023/04/23 02:13:13;;;;;;;9.43;8.43;;;12.20;99.90;;;;;;4997777;28;20062;-79
2023/04/23 02:15:39;;;;;;;12.02;8.93;;;12.20;99.90;;;;;;4996607;28;20026;-79
2023/04/23 02:18:05;;;;;;;12.77;9.23;;;12.20;99.90;;;;;;4997304;28;20034;-78
2023/04/23 02:20:31;;;;;;;11.38;8.75;;;12.20;99.90;;;;;;4997754;28;20394;-78
2023/04/23 02:22:57;;;;;;;12.35;9.68;;;12.20;99.90;;;;;;4996029;28;20026;-78
2023/04/23 02:25:22;;;;;;;12.15;9.00;;;12.20;99.90;;;;;;5003529;28;20486;-78
2023/04/23 02:27:49;;;;;;;13.75;9.98;;;12.20;99.90;;;;;;4998501;28;20039;-79
2023/04/23 02:30:15;;;;;;;13.88;10.25;;;12.20;99.90;;;;;;5001662;28;20053;-79
2023/04/23 02:32:41;;;;;;;14.02;10.38;;;12.20;99.90;;;;;;5007462;28;20026;-78
2023/04/23 02:35:08;;;;;;;12.30;9.90;;;12.20;99.90;;;;;;5004906;28;20034;-79
2023/04/23 02:37:36;;;;;;;11.35;10.15;;;12.20;99.90;;;;;;4999685;28;20073;-81
2023/04/23 02:40:02;;;;;;;13.18;9.95;;;12.20;99.90;;;;;;5002908;28;20099;-82
2023/04/23 02:42:28;;;;;;;13.07;10.57;;;12.10;99.90;;;;;;4998867;28;20029;-80
2023/04/23 02:44:54;;;;;;;16.38;10.48;;;12.20;99.90;;;;;;5003954;28;20398;-78
2023/04/23 02:47:19;;;;;;;9.80;7.97;;;12.20;99.90;;;;;;5001882;28;20041;-79
2023/04/23 02:49:45;;;;;;;5.75;4.60;;;12.10;99.90;;;;;;5005748;28;20088;-80
2023/04/23 02:52:11;;;;;;;7.15;5.07;;;12.00;99.90;;;;;;5000802;28;20403;-79
2023/04/23 02:54:36;;;;;;;4.63;3.60;;;12.00;99.90;;;;;;5007149;28;20036;-80
2023/04/23 02:57:03;;;;;;;5.88;3.05;;;11.90;99.90;;;;;;5010458;28;20174;-80
2023/04/23 02:59:29;;;;;;;4.13;2.95;;;11.80;99.90;;;;;;5006146;28;20022;-81
2023/04/23 03:01:54;;;;;;;4.00;2.80;;;11.70;99.90;;;;;;4999659;28;20068;-81
2023/04/23 03:04:20;;;;;;;5.63;2.70;;;11.70;99.90;;;;;;5004460;28;20030;-82
2023/04/23 03:06:46;;;;;;;3.67;2.97;;;11.60;99.90;;;;;;5003886;28;20133;-82
2023/04/23 03:09:12;;;;;;;3.97;2.70;;;11.60;99.90;;;;;;5005468;28;20520;-82
2023/04/23 03:11:38;;;;;;;3.92;3.30;;;11.50;99.90;;;;;;5008117;28;20037;-83
2023/04/23 03:14:03;;;;;;;3.88;3.47;;;11.40;99.90;;;;;;5010598;28;20529;-83
2023/04/23 03:16:30;;;;;;;6.10;3.40;;;11.30;99.90;;;;;;4997430;28;20029;-82
2023/04/23 03:18:57;;;;;;;4.05;3.67;;;11.30;99.90;;;;;;5009650;28;20026;-81
2023/04/23 03:21:22;;;;;;;4.35;3.80;;;11.20;99.90;;;;;;5001169;28;20081;-80
2023/04/23 03:23:48;;;;;;;8.90;4.53;;;11.20;99.90;;;;;;5014998;28;20178;-80
2023/04/23 03:26:14;;;;;;;4.93;4.43;;;11.10;99.90;;;;;;5006559;28;20041;-80
2023/04/23 03:28:39;;;;;;;6.15;4.88;;;11.10;99.90;;;;;;5010702;28;20037;-79
2023/04/23 03:31:05;;;;;;;7.60;4.57;;;11.10;99.90;;;;;;5009567;28;20030;-80
2023/04/23 03:33:30;;;;;;;6.80;4.78;;;11.10;99.90;;;;;;5006246;28;20045;-81
2023/04/23 03:35:56;;;;;;;5.85;4.60;;;11.00;99.90;;;;;;5000611;28;20080;-82
2023/04/23 03:38:22;;;;;;;5.00;4.32;;;11.00;99.90;;;;;;5000866;28;20037;-81
2023/04/23 03:40:48;;;;;;;5.80;4.25;;;11.10;99.90;;;;;;5008992;28;20109;-81
2023/04/23 03:43:13;;;;;;;4.72;4.28;;;11.10;99.90;;;;;;5006301;28;20038;-81
2023/04/23 03:45:39;;;;;;;5.43;4.30;;;11.20;99.90;;;;;;5008827;28;20044;-81
2023/04/23 03:48:05;;;;;;;6.32;4.85;;;11.10;99.90;;;;;;5002415;28;20029;-81
2023/04/23 03:50:33;;;;;;;5.05;4.53;;;11.10;99.90;;;;;;5010254;28;20080;-82
2023/04/23 03:53:00;;;;;;;5.32;4.35;;;11.10;99.90;;;;;;5011087;28;20056;-81
2023/04/23 03:55:25;;;;;;;6.53;4.78;;;11.00;99.90;;;;;;5010803;28;20033;-83
2023/04/23 03:57:51;;;;;;;5.50;4.90;;;11.00;99.90;;;;;;5011405;28;20473;-82
2023/04/23 04:00:17;;;;;;;8.07;5.10;;;11.00;99.90;;;;;;5005779;28;20581;-82
2023/04/23 04:02:42;;;;;;;6.93;4.72;;;11.00;99.90;;;;;;5000977;28;20041;-81
2023/04/23 04:05:09;;;;;;;5.35;4.72;;;11.00;99.90;;;;;;5009519;28;20077;-83
2023/04/23 04:07:36;;;;;;;5.40;4.90;;;11.00;99.90;;;;;;5005264;28;20104;-83
2023/04/23 04:10:02;;;;;;;5.72;4.75;;;11.00;99.90;;;;;;5009043;28;20040;-83
2023/04/23 04:12:28;;;;;;;5.32;4.82;;;11.10;99.90;;;;;;5008265;28;20034;-83
2023/04/23 04:14:54;;;;;;;5.32;4.82;;;11.00;99.90;;;;;;5008149;28;20023;-84
2023/04/23 04:17:19;;;;;;;5.55;4.97;;;11.00;99.90;;;;;;5008197;28;20049;-83
2023/04/23 04:19:45;;;;;;;5.00;4.47;;;11.10;99.90;;;;;;5009109;28;20494;-83
2023/04/23 04:22:11;;;;;;;6.20;5.00;;;11.10;99.90;;;;;;5000068;28;20511;-84
2023/04/23 04:24:36;;;;;;;7.40;4.93;;;11.00;99.90;;;;;;5009062;28;20105;-83
2023/04/23 04:27:03;;;;;;;4.65;4.25;;;11.00;99.90;;;;;;5010635;28;20455;-83
2023/04/23 04:29:30;;;;;;;4.65;4.25;;;11.00;99.90;;;;;;5006553;28;20038;-83
2023/04/23 04:31:56;;;;;;;6.45;4.47;;;11.00;99.90;;;;;;5000733;28;20026;-83
2023/04/23 04:34:22;;;;;;;5.00;4.50;;;11.00;99.90;;;;;;4999347;28;20395;-83
2023/04/23 04:36:47;;;;;;;6.43;4.68;;;11.00;99.90;;;;;;5004445;28;20037;-81
2023/04/23 04:39:13;;;;;;;5.55;4.93;;;11.00;99.90;;;;;;5007872;28;20401;-83
2023/04/23 04:41:40;;;;;;;5.90;5.32;;;11.00;99.90;;;;;;5000321;28;20030;-82
2023/04/23 04:44:09;;;;;;;7.13;5.50;;;11.00;99.90;;;;;;5004657;28;20482;-82
2023/04/23 04:46:39;;;;;;;6.18;5.57;;;11.00;99.90;;;;;;5004636;28;20069;-81
2023/04/23 04:49:08;;;;;;;6.93;5.68;;;10.90;99.90;;;;;;5009141;28;20026;-81
2023/04/23 04:51:35;;;;;;;6.82;6.13;;;10.90;99.90;;;;;;5010028;28;20022;-80
2023/04/23 04:54:01;;;;;;;7.18;6.40;;;10.90;99.90;;;;;;4997297;28;20033;-81
2023/04/23 04:56:26;;;;;;;8.68;6.35;;;10.90;99.90;;;;;;4991185;28;20101;-81
2023/04/23 04:58:52;;;;;;;6.93;6.10;;;10.90;99.90;;;;;;5009692;28;20409;-81
2023/04/23 05:01:20;;;;;;;6.28;5.68;;;10.90;99.90;;;;;;5008354;28;20522;-81
2023/04/23 05:03:45;;;;;;;7.45;6.10;;;11.00;99.90;;;;;;5006008;28;20116;-82
2023/04/23 05:06:11;;;;;;;7.90;6.45;;;11.00;99.90;;;;;;5004860;28;20113;-81
2023/04/23 05:08:36;;;;;;;9.82;7.30;;;10.90;99.90;;;;;;4999760;28;20033;-80
2023/04/23 05:11:02;;;;;;;9.02;7.22;;;11.00;99.90;;;;;;4994626;28;20421;-80
2023/04/23 05:13:28;;;;;;;8.00;7.13;;;10.90;99.90;;;;;;5001696;28;20486;-81
2023/04/23 05:15:54;;;;;;;7.68;6.97;;;10.90;99.90;;;;;;5005520;28;20113;-82
2023/04/23 05:18:20;;;;;;;13.65;9.93;;;10.90;99.90;;;;;;5003742;28;20116;-80
2023/04/23 05:20:45;;;;;;;10.63;8.90;;;10.90;99.90;;;;;;5008074;28;20032;-81
2023/04/23 05:23:11;;;;;;;9.80;8.40;;;10.90;99.90;;;;;;5003236;28;20030;-81
2023/04/23 05:25:37;;;;;;;9.88;7.95;;;10.90;99.90;;;;;;5008824;28;20030;-81
2023/04/23 05:28:03;;;;;;;8.32;7.43;;;10.90;99.90;;;;;;5007481;28;20022;-82
2023/04/23 05:30:29;;;;;;;8.93;8.02;;;10.90;99.90;;;;;;5008119;28;20036;-82
2023/04/23 05:32:54;;;;;;;9.63;7.78;;;10.90;99.90;;;;;;5009325;28;20393;-82
2023/04/23 05:35:20;;;;;;;9.15;8.23;;;10.90;99.90;;;;;;5009160;28;20032;-82
2023/04/23 05:37:46;;;;;;;10.75;7.90;;;11.00;99.90;;;;;;5007433;28;20532;-81
2023/04/23 05:40:12;;;;;;;10.77;8.85;;;11.00;99.90;;;;;;4999529;28;20029;-82
2023/04/23 05:42:37;;;;;;;8.98;8.13;;;11.00;99.90;;;;;;5001108;28;20034;-82
2023/04/23 05:45:03;;;;;;;9.13;8.23;;;11.10;99.90;;;;;;5009221;28;20049;-82
2023/04/23 05:47:29;;;;;;;10.02;8.52;;;11.20;99.90;;;;;;4997678;28;20034;-82
2023/04/23 05:49:58;;;;;;;9.75;8.13;;;11.20;99.90;;;;;;4996445;28;20030;-82
2023/04/23 05:52:24;;;;;;;12.00;9.35;;;11.20;99.90;;;;;;5001756;28;20029;-82
2023/04/23 05:54:50;;;;;;;10.07;9.07;;;11.30;99.90;;;;;;5008312;28;20367;-82
2023/04/23 05:57:16;;;;;;;12.95;9.40;;;11.30;99.90;;;;;;4994089;28;20089;-82
2023/04/23 05:59:41;;;;;;;11.02;8.80;;;11.40;99.90;;;;;;5004401;28;20022;-82
2023/04/23 06:02:09;;;;;;;9.18;8.27;;;11.30;99.90;;;;;;5006963;28;20378;-82
2023/04/23 06:04:35;;;;;;;11.35;8.43;;;11.40;99.90;;;;;;5003902;28;20057;-83
2023/04/23 06:07:01;;;;;;;10.35;8.27;;;11.40;99.90;;;;;;5003109;28;20516;-82
2023/04/23 06:09:26;;;;;;;10.30;8.20;;;11.40;99.90;;;;;;5000766;28;20093;-82
2023/04/23 06:11:53;;;;;;;10.45;9.05;;;11.50;99.90;;;;;;4645048;28;10000265;-80
2023/04/23 06:14:18;;;;;;;11.27;9.95;;;11.60;99.90;;;;;;4988990;28;20419;-80
2023/04/23 06:16:44;;;;;;;13.23;10.02;;;11.60;99.90;;;;;;5000813;28;20084;-81
2023/04/23 06:19:10;;;;;;;12.02;10.43;;;11.60;99.90;;;;;;4991777;28;20030;-81
2023/04/23 06:21:36;;;;;;;11.23;9.18;;;11.70;99.90;;;;;;4996412;28;20080;-81
2023/04/23 06:24:01;;;;;;;10.05;9.05;;;11.80;99.90;;;;;;4998996;28;20038;-81
2023/04/23 06:26:27;;;;;;;10.43;8.75;;;11.80;99.90;;;;;;4994060;28;20234;-80
2023/04/23 06:28:52;;;;;;;13.88;11.40;;;11.90;99.90;;;;;;4994003;28;20112;-81
2023/04/23 06:31:18;;;;;;;12.30;9.93;;;12.00;99.90;;;;;;4997215;28;20038;-81
2023/04/23 06:33:44;;;;;;;11.68;9.88;;;12.10;99.90;;;;;;4996680;28;20034;-81
2023/04/23 06:36:09;;;;;;;13.98;12.10;;;12.20;99.90;;;;;;4996727;28;20080;-81
2023/04/23 06:38:36;;;;;;;11.60;10.40;;;12.30;99.90;;;;;;4989173;28;20033;-82
2023/04/23 06:41:03;;;;;;;12.75;11.05;;;12.30;99.90;;;;;;4993266;28;20031;-82
2023/04/23 06:43:28;;;;;;;12.85;10.57;;;12.40;99.90;;;;;;4998392;28;20741;-82
2023/04/23 06:45:55;;;;;;;15.55;11.57;;;12.60;99.90;;;;;;5003136;28;20046;-81
2023/04/23 06:48:21;;;;;;;15.30;12.05;;;12.70;99.90;;;;;;5001571;28;20038;-82
2023/04/23 06:50:49;;;;;;;14.32;12.32;;;12.80;99.90;;;;;;4994184;28;20581;-81
2023/04/23 06:53:15;;;;;;;13.32;11.65;;;12.90;99.90;;;;;;5000299;28;20034;-81
2023/04/23 06:55:41;;;;;;;15.95;13.02;;;13.00;99.90;;;;;;4995292;28;20033;-81
2023/04/23 06:58:06;;;;;;;14.55;12.38;;;13.10;99.90;;;;;;4997783;28;20118;-81
2023/04/23 07:00:32;;;;;;;16.98;13.20;;;13.20;99.90;;;;;;4994650;28;20023;-81
2023/04/23 07:02:58;;;;;;;16.63;12.63;;;13.30;99.90;;;;;;4992795;28;20037;-81
2023/04/23 07:05:24;;;;;;;14.60;11.80;;;13.50;99.90;;;;;;4996350;28;20386;-81
2023/04/23 07:07:49;;;;;;;16.80;12.77;;;13.70;99.90;;;;;;4995923;28;20034;-75
2023/04/23 07:10:15;;;;;;;17.10;13.40;;;13.70;99.90;;;;;;4998510;28;20026;-74
2023/04/23 07:12:40;;;;;;;16.80;13.48;;;13.60;99.90;;;;;;4993867;28;20026;-78
2023/04/23 07:15:07;;;;;;;16.90;13.95;;;13.70;99.90;;;;;;4990332;28;20019;-78
2023/04/23 07:17:33;;;;;;;16.75;13.30;;;13.70;99.90;;;;;;4998325;28;20683;-74
2023/04/23 07:19:58;;;;;;;15.27;12.82;;;13.70;99.90;;;;;;5003567;28;20034;-75
2023/04/23 07:22:25;;;;;;;15.25;11.50;;;13.80;99.90;;;;;;4994414;28;20022;-75
2023/04/23 07:24:51;;;;;;;15.68;11.38;;;13.80;99.90;;;;;;4992706;28;20054;-75
2023/04/23 07:27:17;;;;;;;16.00;12.50;;;13.70;99.90;;;;;;4991953;28;20576;-74
2023/04/23 07:29:43;;;;;;;14.77;11.43;;;13.70;99.90;;;;;;4990285;28;20398;-76
2023/04/23 07:32:08;;;;;;;13.35;11.07;;;13.80;99.90;;;;;;4988467;28;20027;-74
2023/04/23 07:34:35;;;;;;;11.85;10.45;;;13.80;99.90;;;;;;4992889;28;20070;-75
2023/04/23 07:37:01;;;;;;;11.57;10.38;;;;;;;;;;4990342;28;20056;-79
2023/04/23 07:39:27;;;;;;;11.70;10.50;;;13.90;99.90;;;;;;4993415;28;20019;-75
2023/04/23 07:41:53;;;;;;;11.30;10.10;;;13.90;99.90;;;;;;5005502;28;20084;-75
2023/04/23 07:44:18;;;;;;;10.30;8.63;;;14.00;99.90;;;;;;5006888;28;20120;-75
2023/04/23 07:46:44;;;;;;;10.73;8.95;;;14.00;99.90;;;;;;5014806;28;20098;-75
2023/04/23 07:49:09;;;;;;;10.82;9.02;;;14.20;99.90;;;;;;5030899;28;20116;-74
2023/04/23 07:51:35;;;;;;;9.18;8.18;;;14.50;99.90;;;;;;5010430;28;20041;-74
2023/04/23 07:54:01;;;;;;;10.27;7.60;;;14.80;99.90;;;;;;5004169;28;20453;-74
2023/04/23 07:56:26;;;;;;;7.75;6.88;;;15.10;99.90;;;;;;5006618;28;20022;-75
2023/04/23 07:58:57;;;;;;;9.25;6.53;;;15.00;99.90;;;;;;5005383;28;20109;-74
2023/04/23 08:01:22;;;;;;;8.40;6.88;;;14.80;99.90;;;;;;5010796;28;20065;-74
2023/04/23 08:03:48;;;;;;;8.43;6.95;;;14.70;99.90;;;;;;5007033;28;20474;-74
2023/04/23 08:06:14;;;;;;;7.60;6.35;;;14.80;99.90;;;;;;5006972;28;20045;-75
2023/04/23 08:08:39;;;;;;;7.78;6.40;;;15.10;99.90;;;;;;5010697;28;20037;-74
2023/04/23 08:11:06;;;;;;;9.07;6.53;;;15.30;99.90;;;;;;5001528;28;20026;-74
2023/04/23 08:13:32;;;;;;;7.80;6.50;;;15.50;99.90;;;;;;4997929;28;20212;-74
2023/04/23 08:15:57;;;;;;;9.45;6.85;;;15.60;99.90;;;;;;5003678;28;20029;-75
2023/04/23 08:18:23;;;;;;;7.35;6.53;;;15.70;99.90;;;;;;5010582;28;20037;-74
2023/04/23 08:20:49;;;;;;;6.97;5.82;;;15.90;99.90;;;;;;5008501;28;20026;-74
2023/04/23 08:23:15;;;;;;;6.25;5.47;;;16.00;99.90;;;;;;5010296;28;20040;-74
2023/04/23 08:25:40;;;;;;;7.05;5.65;;;16.00;99.90;;;;;;5003772;28;20241;-74
2023/04/23 08:28:06;;;;;;;7.57;5.53;;;16.10;99.90;;;;;;5010176;28;20402;-74
2023/04/23 08:30:32;;;;;;;6.63;5.40;;;16.20;99.90;;;;;;5006309;28;20029;-74
2023/04/23 08:32:57;;;;;;;6.35;5.63;;;16.30;99.90;;;;;;5010027;28;20505;-75
2023/04/23 08:35:23;;;;;;;8.10;5.72;;;16.20;99.90;;;;;;5009780;28;20025;-74
2023/04/23 08:37:49;;;;;;;6.20;5.40;;;16.20;99.90;;;;;;5003777;28;20033;-75
2023/04/23 08:40:15;;;;;;;6.95;5.63;;;16.10;99.90;;;;;;5000546;28;20100;-75
2023/04/23 08:42:56;;;;;;;6.57;5.18;;;16.10;99.90;;;;;;5005144;28;20054;-75
2023/04/23 08:45:23;;;;;;;6.95;5.93;;;16.20;99.90;;;;;;5009220;28;20139;-75
2023/04/23 08:47:49;;;;;;;7.85;6.13;;;16.30;99.90;;;;;;5000001;28;20570;-74
2023/04/23 08:50:17;;;;;;;8.43;5.85;;;16.30;99.90;;;;;;5005297;28;20112;-74
2023/04/23 08:52:56;;;;;;;7.63;5.90;;;16.40;99.90;;;;;;5009688;28;20030;-75
2023/04/23 08:55:23;;;;;;;6.72;5.95;;;16.50;99.90;;;;;;5000027;28;20038;-74
2023/04/23 08:57:49;;;;;;;7.53;6.10;;;16.30;99.90;;;;;;5007757;28;20109;-74
2023/04/23 09:00:17;;;;;;;6.10;5.50;;;16.40;99.90;;;;;;5005591;28;20030;-74
2023/04/23 09:02:45;;;;;;;7.75;5.88;;;16.60;99.90;;;;;;5009288;28;20028;-74
2023/04/23 09:05:12;;;;;;;7.30;5.88;;;16.70;99.90;;;;;;4995108;28;20048;-74
2023/04/23 09:07:37;;;;;;;8.05;5.80;;;16.80;99.90;;;;;;5009084;28;20390;-74
2023/04/23 09:10:07;;;;;;;8.15;6.18;;;16.80;99.90;;;;;;5007247;28;20030;-74
2023/04/23 09:12:37;;;;;;;9.60;5.72;;;16.90;99.90;;;;;;4993368;28;20037;-74
2023/04/23 09:15:10;;;;;;;6.88;6.07;;;17.00;99.90;;;;;;5009141;28;20026;-75
2023/04/23 09:17:43;;;;;;;8.82;6.10;;;17.20;99.90;;;;;;4992484;28;20035;-75
2023/04/23 09:20:11;;;;;;;5.53;5.03;;;17.50;99.90;;;;;;5005079;28;20022;-75
2023/04/23 09:22:51;;;;;;;10.65;5.20;;;17.70;99.90;;;;;;4993935;28;20113;-74
2023/04/23 09:25:22;;;;;;;6.35;4.82;;;17.80;99.90;;;;;;4995185;28;20034;-73
2023/04/23 09:27:49;;;;;;;7.13;5.05;;;17.70;99.90;;;;;;4989634;28;20026;-74
2023/04/23 09:30:16;;;;;;;5.07;4.57;;;17.60;99.90;;;;;;4996636;28;20030;-74
2023/04/23 09:32:44;;;;;;;5.10;4.60;;;17.40;99.90;;;;;;5005995;28;20033;-74
2023/04/23 09:35:12;;;;;;;5.72;4.32;;;17.10;99.90;;;;;;5009204;28;20042;-74
2023/04/23 09:37:47;;;;;;;5.75;4.75;;;16.80;99.90;;;;;;5008855;28;20030;-74
2023/04/23 09:40:14;;;;;;;8.10;5.25;;;16.50;99.90;;;;;;5003845;28;20030;-75
2023/04/23 09:42:40;;;;;;;6.10;4.72;;;16.30;99.90;;;;;;5005863;28;20037;-75
2023/04/23 09:45:07;;;;;;;6.75;5.47;;;16.20;99.90;;;;;;5008663;28;20022;-74
2023/04/23 09:47:36;;;;;;;10.38;5.30;;;16.00;99.90;;;;;;5006232;28;20073;-75
2023/04/23 09:50:03;;;;;;;6.47;4.25;;;16.00;99.90;;;;;;5005970;28;20038;-73
2023/04/23 09:52:33;;;;;;;5.82;4.95;;;16.40;99.90;;;;;;5008633;28;20112;-74
2023/04/23 09:55:04;;;;;;;5.70;4.45;;;16.80;99.90;;;;;;5004421;28;20088;-74
2023/04/23 09:57:31;;;;;;;5.60;4.57;;;17.60;99.90;;;;;;5005641;28;20080;-73
2023/04/23 09:59:57;;;;;;;5.43;4.50;;;;;;;;;;4995301;28;20044;-73
2023/04/23 10:02:27;;;;;;;5.53;4.40;;;17.80;99.90;;;;;;4995736;28;20481;-73
2023/04/23 10:04:53;;;;;;;5.25;4.22;;;17.80;99.90;;;;;;4998477;28;20057;-74
2023/04/23 10:07:19;;;;;;;5.25;4.20;;;17.80;99.90;;;;;;4996765;28;20490;-73
2023/04/23 10:09:46;;;;;;;5.30;3.88;;;17.90;99.90;;;;;;4997606;28;20021;-73
2023/04/23 10:12:12;;;;;;;6.85;4.63;;;17.70;99.90;;;;;;5001554;28;20502;-74
2023/04/23 10:14:40;;;;;;;4.50;4.10;;;17.60;99.90;;;;;;4999740;28;20037;-74
2023/04/23 10:17:07;;;;;;;5.53;4.40;;;17.70;99.90;;;;;;5000091;28;20544;-74
2023/04/23 10:19:33;;;;;;;7.72;4.88;;;17.90;99.90;;;;;;4999167;28;20033;-73
2023/04/23 10:22:04;;;;;;;6.30;4.50;;;18.10;99.90;;;;;;5002673;28;20030;-72
2023/04/23 10:24:32;;;;;;;8.13;4.60;;;18.20;99.90;;;;;;4998897;28;20038;-72
2023/04/23 10:27:03;;;;;;;7.80;5.80;;;18.40;99.90;;;;;;5001347;28;20057;-72
2023/04/23 10:29:33;;;;;;;4.90;4.40;;;18.50;99.90;;;;;;4307000;28;10000761;-72
2023/04/23 10:32:00;;;;;;;5.25;3.83;;;18.80;99.90;;;;;;4996331;28;20034;-72
2023/04/23 10:34:28;;;;;;;5.70;4.07;;;19.00;99.90;;;;;;4992776;28;20082;-72
2023/04/23 10:36:55;;;;;;;4.43;3.50;;;;;;;;;;4996526;28;20053;-72
2023/04/23 10:39:23;;;;;;;4.80;3.78;;;19.30;99.90;;;;;;4994523;28;20029;-72
2023/04/23 10:41:49;;;;;;;4.40;4.00;;;19.20;99.90;;;;;;5005478;28;20355;-73
2023/04/23 10:44:15;;;;;;;4.78;4.03;;;19.00;99.90;;;;;;5005624;28;20045;-72
2023/04/23 10:46:55;;;;;;;3.83;3.35;;;19.00;99.90;;;;;;4991867;28;20046;-73
2023/04/23 10:49:23;;;;;;;4.38;3.63;;;19.00;99.90;;;;;;4998499;28;20135;-73
2023/04/23 10:51:56;;;;;;;3.88;3.45;;;19.40;99.90;;;;;;5000599;28;20057;-73
2023/04/23 10:54:29;;;;;;;4.72;3.50;;;19.90;99.90;;;;;;4992742;28;20033;-73
2023/04/23 10:57:03;;;;;;;3.80;3.20;;;20.20;99.90;;;;;;5003378;28;20026;-73
2023/04/23 10:59:30;;;;;;;3.38;2.55;;;20.30;99.90;;;;;;4996224;28;20288;-72
2023/04/23 11:02:00;;;;;;;3.13;2.70;;;20.20;99.90;;;;;;4999488;28;20030;-72
2023/04/23 11:04:27;;;;;;;3.80;2.70;;;20.40;99.90;;;;;;4998018;28;20092;-73
2023/04/23 11:07:06;;;;;;;2.60;2.40;;;20.60;99.90;;;;;;5000988;28;20053;-73
2023/04/23 11:09:36;;;;;;;3.58;2.38;;;20.80;99.90;;;;;;5000223;28;20041;-73
2023/04/23 11:12:04;;;;;;;3.47;2.55;;;21.00;99.90;;;;;;4997288;28;20033;-73
2023/04/23 11:14:41;;;;;;;2.17;1.95;;;21.00;99.90;;;;;;5002362;28;20164;-73
2023/04/23 11:17:09;;;;;;;3.63;2.17;;;21.20;99.90;;;;;;5001599;28;20030;-72
2023/04/23 11:19:36;;;;;;;3.67;1.83;;;21.10;99.90;;;;;;5003467;28;20023;-73
2023/04/23 11:22:04;;;;;;;3.83;2.22;;;20.90;99.90;;;;;;5001384;28;20073;-72
2023/04/23 11:24:41;;;;;;;2.42;1.88;;;20.50;99.90;;;;;;5006999;28;20560;-73
2023/04/23 11:27:09;;;;;;;2.83;2.28;;;20.60;99.90;;;;;;5008835;28;20045;-73
2023/04/23 11:29:36;;;;;;;2.42;2.20;;;20.80;99.90;;;;;;4993296;28;20118;-73
2023/04/23 11:32:04;;;;;;;3.70;2.20;;;21.00;99.90;;;;;;5005757;28;20041;-73
2023/04/23 11:34:31;;;;;;;3.78;2.28;;;20.80;99.90;;;;;;5004448;28;20037;-73
2023/04/23 11:36:58;;;;;;;3.08;2.50;;;20.40;99.90;;;;;;5005213;28;20018;-72
2023/04/23 11:39:24;;;;;;;4.70;2.30;;;19.90;99.90;;;;;;4999491;28;20033;-73
2023/04/23 11:41:51;;;;;;;3.25;2.17;;;19.50;99.90;;;;;;5000773;28;20022;-74
2023/04/23 11:44:18;;;;;;;3.25;1.85;;;19.10;99.90;;;;;;5003844;28;20034;-74
2023/04/23 11:46:46;;;;;;;7.75;2.35;;;;;;;;;;5002379;28;20046;-73
2023/04/23 11:49:12;;;;;;;6.30;2.53;;;;;;;;;;5001748;28;20410;-74
2023/04/23 11:51:44;;;;;;;4.13;2.42;;;18.10;99.90;;;;;;5005050;28;20030;-73
2023/04/23 11:54:12;;;;;;;4.82;2.53;;;18.00;99.90;;;;;;5003758;28;20038;-74
2023/04/23 11:56:38;;;;;;;3.42;2.30;;;18.40;99.90;;;;;;5001534;28;20103;-73
2023/04/23 11:59:04;;;;;;;2.85;2.13;;;18.80;99.90;;;;;;5001678;28;20045;-74
2023/04/23 12:01:43;;;;;;;4.07;2.10;;;19.30;99.90;;;;;;5004046;28;20398;-73
2023/04/23 12:04:17;;;;;;;4.47;1.85;;;19.70;99.90;;;;;;5000497;28;20030;-73
2023/04/23 12:06:45;;;;;;;2.40;1.92;;;20.00;99.90;;;;;;5000250;28;20037;-74
2023/04/23 12:09:11;;;;;;;3.03;1.38;;;20.10;99.90;;;;;;5001987;28;20045;-74
2023/04/23 12:11:39;;;;;;;3.00;1.42;;;20.30;99.90;;;;;;5002201;28;20092;-74
2023/04/23 12:14:05;;;;;;;2.13;1.30;;;20.40;99.90;;;;;;5002709;28;20533;-74
2023/04/23 12:16:39;;;;;;;3.13;1.20;;;20.60;99.90;;;;;;5002315;28;20034;-73
2023/04/23 12:19:11;;;;;;;1.52;1.15;;;20.70;99.30;;;;;;5002764;28;20026;-73
2023/04/23 12:22:07;;;;;;;2.38;1.00;;;20.50;98.00;;;;;;5001350;28;20045;-73
2023/04/23 12:24:53;;;;;;;1.77;0.90;;;20.10;97.90;;;;;;4973205;28;20622;-74
2023/04/23 12:27:21;;;;;;;1.52;1.10;;;19.80;97.90;;;;;;5002865;28;20530;-73
2023/04/23 12:29:46;;;;;;;3.45;0.95;;;19.40;98.20;;;;;;4995560;28;20037;-73
2023/04/23 12:32:14;;;;;;;2.00;1.10;;;19.10;97.70;;;;;;5003122;28;20034;-73
2023/04/23 12:34:55;;;;;;;3.53;1.15;;;18.90;98.30;;;;;;5003250;28;20057;-73
2023/04/23 12:37:25;;;;;;;1.27;1.13;;;18.90;99.20;;;;;;4998939;28;20030;-74
2023/04/23 12:39:52;;;;;;;1.20;1.10;;;18.70;98.40;;;;;;5002649;28;20029;-74
2023/04/23 12:42:18;;;;;;;1.98;1.20;;;18.60;99.80;;;;;;4998267;28;20249;-74